Airfield :
LOGIN :

Register | Disclaimer

   EN    FR    IT 

 










Legend :    VFR   Marginal VFR   IFR   Intensive IFR   Very Intensive IFR
Visi :
Ceiling :
>= 8 km
>= 3000ft
5 to 8 km
1000 to 3000 ft
1500m to 5 km
500 to 1000 ft
800 to 1500m
200 to 500 ft
< 800m
< 200 ft
Symbols :   Thunderstorms  Fog  Heavy snow  Heavy precipitations  Wind > 20 kt
SIGMETs :     Misc.  Thunderstorms  Icing  Turbulence  Mountain Waves  Volcanic Ashes







- Airport Elevation : 219 ft
- IATA code : DNR
- Download approach charts


LFRD - Dinard

CURRENT METAR :
  • 241330Z AUTO 18004KT 150V210 6000 SCT008 OVC017 18/17 Q1018 TEMPO BKN008

EXPIRED METARs :
  • 241300Z AUTO 17005KT 4200 -DZ BR BKN007 BKN016 BKN034 18/17 Q1018 BECMG 9999 NSW
  • 241230Z AUTO 16004KT 120V190 5000 -RADZ BR FEW008 SCT041 OVC049 18/16 Q1018 TEMPO BKN008
  • 241200Z AUTO 17004KT 130V210 6000 FEW013 BKN029 OVC046 18/16 Q1018 TEMPO BKN008
  • 241130Z AUTO 17005KT 140V200 9000 BKN028 OVC037 18/15 Q1018 TEMPO BKN008
  • 241100Z AUTO 18005KT 140V200 9999 BKN012/// OVC025/// ///TCU 17/15 Q1018 BECMG NSC

TAF TAF LFRD
Valid from the 24 at 12:00 until the 25 at 12:00 UTC


241100Z 2412/2512 19007KT 9999 BKN030
TEMPO 2412/2418 BKN008
BECMG 2418/2420 5000 RA BKN015
TEMPO 2418/2506 4000 RA BKN005
BECMG 2502/2504 31010KT
BECMG 2508/2510 9999 NSW
BECMG 2510/2512 BKN020
ATIS : +33 2 99 16 81 50
No reported NOTAMs for that airfield.



MET'MAP, your aeronautical weather chart ! - Copyright ORBIFLY December 2007 - Disclaimer

ORBIFLY MET'MAP TEAM :

Programming & Development : Alexandra Zaïnal
Concept & Development : Baudouin d'Aumeries
Co-Development & Prog : Marc-Olivier Méhu
Technical & hardware support : Manuel Goepfert

Contact : metmap@orbifly.com




SOURCES & CREDITS :

   NOAA